Pine Bluff, AR

03:03 AM CST am 24. Januar 2017 (GMT -0600)
Pine Bluff | | Change Station

Höhe 253 ft 34.19 °N, 92.03 °W | Updated 35 seconds ago

Heiter
Heiter
35.4 °F
gefühlte 35 °F
N
0.0
Wind Wechselnd Wind aus West

Heute
Max. -- | schwach -- °F
--% Regenrisiko
Gestern
Max. -- | schwach -- °F
Precip. -- inch
Druck 29.90 inch
Sichtweite 10.0 Meilen
Wolken Heiter
Windchill 35 °F
Taupunkt 35 °F
Feuchtigkeit 97%
Regen 0.00 inch
Schneehöhe Nicht verfügbar..
7:10 AM 5:30 PM
Letztes Viertel, 13% visible
METAR KPBF 240853Z AUTO 00000KT 10SM CLR 04/03 A2990 RMK AO2 SLP124 T00390033 53007
Druck 29.90 inch
Sichtweite 10.0 Meilen
Wolken Heiter
Windchill 35 °F
Taupunkt 35 °F
Feuchtigkeit 97%
Regen 0.00 inch
Schneehöhe Nicht verfügbar..
7:10 AM 5:30 PM
Letztes Viertel, 13% visible
METAR KPBF 240853Z AUTO 00000KT 10SM CLR 04/03 A2990 RMK AO2 SLP124 T00390033 53007

Get Your Daily Forecast Email!

Thanks for signing up!

Be on the lookout for a verification email in your inbox.

You'll start receiving the daily forecast at 8 AM.

×

10-Day Weather Forecast

Almanac

Astronomie

Jan. 24, 2017 Aufgang Untergang
Genaue Zeit
Bürgerliche Dämmerung
Nautische Dämmerung
Astronomische Dämmerung
Mond
Länge des sichtbaren Lichts
Tageslänge
Tomorrow will be .
, % of the Moon is Illuminated

Heutige Rekorde

State Highs State Lows

Community

WunderPhotos

Upload Photos

1,962,540 Fotos hochgeladen!

WunderBlog® & News

Nearby

Luftqualität

  Luftqualität LQ Index Schadstoff
Not available.

Schneehöhe

Station Depth Höhe

Erdbebenaktivität

Stadt Distance Mag. Time & Date
Minimum magnitude displayed is 2.5.

küstennahe Wassertemperaturen

Ort Temperatur

Stations

Wetterstationen in der Umgebung

Stationsstandort Temp. Windchill Taupunkt Feuchtigkeit Wind Precip. Höhe Aktualisiert Art
                   

Watches & Warnings

There are currently no watches in effect.